| time (UTC) | temp F | wind direction | speed knots | gust knots | rain 1hr in | rain 24hr in | rain mn in | humidity % | barometer mb |
| 20260507001611 | 69 | 0.0 | 0.0 | 0.00 | 0.00 | 0.00 | 62 | 1001.3 | |
| 20260507000056 | 71 | 0.0 | 0.0 | 0.00 | 0.00 | 0.00 | 59 | 1001.3 | |
| 20260506234602 | 73 | 0.0 | 0.0 | 0.00 | 0.00 | 0.00 | 57 | 1001.3 | |
| 20260506233056 | 75 | 0.0 | 0.0 | 0.00 | 0.00 | 0.00 | 56 | 1001.3 | |
| 20260506231554 | 78 | 0.0 | 0.0 | 0.00 | 0.00 | 0.00 | 53 | 1001.4 | |
| 20260506230051 | 79 | 0.0 | 0.0 | 0.00 | 0.00 | 0.00 | 52 | 1001.5 | |
| 20260506224604 | 79 | 0.0 | 0.0 | 0.00 | 0.00 | 0.00 | 52 | 1001.6 | |
| 20260506223049 | 78 | 0.0 | 0.0 | 0.00 | 0.00 | 0.00 | 52 | 1001.7 | |
| 20260506221543 | 77 | 0.0 | 0.0 | 0.00 | 0.00 | 0.00 | 54 | 1001.9 | |
| 20260506220045 | 73 | 0.0 | 0.0 | 0.00 | 0.00 | 0.00 | 57 | 1002.1 | |
| 20260506214536 | 73 | 0.0 | 0.0 | 0.00 | 0.00 | 0.00 | 57 | 1002.2 | |
| 20260506213033 | 72 | 0.0 | 0.0 | 0.00 | 0.00 | 0.00 | 58 | 1002.4 | |
| 20260506211531 | 70 | 0.0 | 0.0 | 0.00 | 0.00 | 0.00 | 59 | 1002.5 | |
| 20260506210026 | 69 | 0.0 | 0.0 | 0.00 | 0.00 | 0.00 | 60 | 1002.6 | |
| 20260506204522 | 67 | 0.0 | 0.0 | 0.00 | 0.00 | 0.00 | 62 | 1002.7 | |
| 20260506203017 | 65 | 0.0 | 0.0 | 0.00 | 0.00 | 0.00 | 65 | 1003.0 | |
| 20260506201515 | 64 | 0.0 | 0.0 | 0.00 | 0.00 | 0.00 | 66 | 1003.1 | |
| 20260506200010 | 63 | 0.0 | 0.0 | 0.00 | 0.00 | 0.00 | 68 | 1003.2 | |
| 20260506194508 | 62 | 0.0 | 0.0 | 0.00 | 0.00 | 0.00 | 69 | 1003.4 | |
| 20260506193007 | 61 | 0.0 | 0.0 | 0.00 | 0.00 | 0.00 | 70 | 1003.5 | |
| 20260506191505 | 61 | 0.0 | 0.0 | 0.00 | 0.00 | 0.00 | 71 | 1003.6 | |
| 20260506190002 | 60 | 0.0 | 0.0 | 0.00 | 0.00 | 0.00 | 72 | 1003.8 | |
| 20260506184600 | 60 | 0.0 | 0.0 | 0.00 | 0.00 | 0.00 | 73 | 1003.8 | |
| 20260506183102 | 60 | 0.0 | 0.0 | 0.00 | 0.00 | 0.00 | 73 | 1003.8 | |
| 20260506181615 | 59 | 0.0 | 0.0 | 0.00 | 0.00 | 0.00 | 73 | 1003.9 | |
| 20260506180051 | 58 | 0.0 | 0.0 | 0.00 | 0.00 | 0.00 | 74 | 1003.9 | |
| 20260506174549 | 58 | 0.0 | 0.0 | 0.00 | 0.00 | 0.00 | 73 | 1003.9 | |
| 20260506173116 | 57 | 0.0 | 0.0 | 0.00 | 0.00 | 0.00 | 75 | 1004.0 | |
| 20260506171552 | 57 | 0.0 | 0.0 | 0.00 | 0.00 | 0.00 | 75 | 1004.0 | |
| 20260506170045 | 56 | 0.0 | 0.0 | 0.00 | 0.00 | 0.00 | 77 | 1004.1 | |
| 20260506164540 | 56 | 0.0 | 0.0 | 0.00 | 0.00 | 0.00 | 77 | 1004.1 | |
| 20260506163038 | 55 | 0.0 | 0.0 | 0.00 | 0.00 | 0.00 | 78 | 1004.0 | |
| 20260506161535 | 55 | 0.0 | 0.0 | 0.00 | 0.00 | 0.00 | 79 | 1004.1 | |
| 20260506160039 | 54 | 0.0 | 0.0 | 0.00 | 0.00 | 0.00 | 80 | 1004.1 | |
| 20260506154530 | 54 | 0.0 | 0.0 | 0.00 | 0.00 | 0.00 | 80 | 1004.0 | |
| 20260506153028 | 53 | 0.0 | 0.0 | 0.00 | 0.00 | 0.00 | 81 | 1004.0 | |
| 20260506151526 | 53 | 0.0 | 0.0 | 0.00 | 0.00 | 0.00 | 82 | 1004.0 | |
| 20260506150025 | 52 | 0.0 | 0.0 | 0.00 | 0.00 | 0.00 | 83 | 1003.9 | |
| 20260506144523 | 52 | 0.0 | 0.0 | 0.00 | 0.00 | 0.00 | 83 | 1003.9 | |
| 20260506143022 | 52 | 0.0 | 0.0 | 0.00 | 0.00 | 0.00 | 83 | 1003.8 | |
| 20260506141520 | 52 | 0.0 | 0.0 | 0.00 | 0.00 | 0.00 | 83 | 1003.8 | |
| 20260506140018 | 51 | 0.0 | 0.0 | 0.00 | 0.00 | 0.00 | 83 | 1003.6 | |
| 20260506134521 | 51 | 0.0 | 0.0 | 0.00 | 0.00 | 0.00 | 84 | 1003.4 | |
| 20260506133016 | 51 | 0.0 | 0.0 | 0.00 | 0.00 | 0.00 | 84 | 1003.3 | |
| 20260506131534 | 51 | 0.0 | 0.0 | 0.00 | 0.00 | 0.00 | 84 | 1003.1 | |
| 20260506130012 | 51 | 0.0 | 0.0 | 0.00 | 0.00 | 0.00 | 84 | 1003.1 | |
| 20260506124513 | 51 | 0.0 | 0.0 | 0.00 | 0.00 | 0.00 | 84 | 1002.9 | |
| 20260506123010 | 51 | 0.0 | 0.0 | 0.00 | 0.00 | 0.00 | 84 | 1002.9 | |
| 20260506121508 | 51 | 0.0 | 0.0 | 0.00 | 0.00 | 0.00 | 84 | 1002.9 | |
| 20260506120013 | 51 | 0.0 | 0.0 | 0.00 | 0.00 | 0.00 | 84 | 1002.7 | |
| 20260506114506 | 51 | 0.0 | 0.0 | 0.00 | 0.00 | 0.00 | 84 | 1002.6 | |
| 20260506113004 | 51 | 0.0 | 0.0 | 0.00 | 0.00 | 0.00 | 84 | 1002.5 | |
| 20260506111502 | 51 | 0.0 | 0.0 | 0.00 | 0.00 | 0.00 | 84 | 1002.5 | |
| 20260506110001 | 51 | 0.0 | 0.0 | 0.00 | 0.00 | 0.00 | 84 | 1002.4 | |
| 20260506104600 | 51 | 0.0 | 0.0 | 0.00 | 0.00 | 0.00 | 83 | 1002.3 | |
| 20260506103059 | 51 | 0.0 | 0.0 | 0.00 | 0.00 | 0.00 | 84 | 1002.2 | |
| 20260506101557 | 52 | 0.0 | 0.0 | 0.00 | 0.00 | 0.00 | 83 | 1002.2 | |
| 20260506100057 | 52 | 0.0 | 0.0 | 0.00 | 0.00 | 0.00 | 83 | 1002.2 | |
| 20260506094620 | 52 | 0.0 | 0.0 | 0.00 | 0.00 | 0.00 | 83 | 1002.3 | |
| 20260506093053 | 53 | 0.0 | 0.0 | 0.00 | 0.00 | 0.00 | 82 | 1002.3 | |
| 20260506091550 | 53 | 0.0 | 0.0 | 0.00 | 0.00 | 0.00 | 82 | 1002.2 | |
| 20260506090049 | 53 | 0.0 | 0.0 | 0.00 | 0.00 | 0.00 | 82 | 1002.2 | |
| 20260506084548 | 53 | 0.0 | 0.0 | 0.00 | 0.00 | 0.00 | 81 | 1002.2 | |
| 20260506083048 | 53 | 0.0 | 0.0 | 0.00 | 0.00 | 0.00 | 81 | 1002.2 | |
| 20260506081545 | 53 | 0.0 | 0.0 | 0.00 | 0.00 | 0.00 | 81 | 1002.2 | |
| 20260506073041 | 53 | 0.0 | 0.0 | 0.00 | 0.00 | 0.00 | 80 | 1002.0 | |
| 20260506071542 | 53 | 0.0 | 0.0 | 0.00 | 0.00 | 0.00 | 80 | 1002.0 | |
| 20260506061534 | 53 | 0.0 | 0.0 | 0.00 | 0.00 | 0.00 | 79 | 1001.6 | |
| 20260506044526 | 53 | 0.0 | 0.0 | 0.00 | 0.00 | 0.00 | 78 | 1000.9 | |
| 20260506043025 | 53 | 0.0 | 0.0 | 0.00 | 0.00 | 0.00 | 78 | 1000.8 | |
| 20260506041523 | 53 | 0.0 | 0.0 | 0.00 | 0.00 | 0.00 | 78 | 1000.6 | |
| 20260506040022 | 54 | 0.0 | 0.0 | 0.00 | 0.00 | 0.00 | 77 | 1000.3 | |
| 20260506034520 | 54 | 0.0 | 0.0 | 0.00 | 0.00 | 0.00 | 77 | 1000.2 | |
| 20260506033017 | 54 | 0.0 | 0.0 | 0.00 | 0.00 | 0.00 | 77 | 999.9 | |
| 20260506031518 | 54 | 0.0 | 0.0 | 0.00 | 0.00 | 0.00 | 76 | 999.9 | |
| 20260506030027 | 55 | 0.0 | 0.0 | 0.00 | 0.00 | 0.00 | 76 | 999.7 | |
| 20260506024532 | 55 | 0.0 | 0.0 | 0.00 | 0.00 | 0.00 | 76 | 999.6 | |
| 20260506023015 | 56 | 0.0 | 0.0 | 0.00 | 0.00 | 0.00 | 75 | 999.3 | |
| 20260506021514 | 56 | 0.0 | 0.0 | 0.00 | 0.00 | 0.00 | 74 | 999.3 | |
| 20260506020012 | 57 | 0.0 | 0.0 | 0.00 | 0.00 | 0.00 | 73 | 999.4 | |
| 20260506014517 | 57 | 0.0 | 0.0 | 0.00 | 0.00 | 0.00 | 72 | 999.4 | |
| 20260506013011 | 58 | 0.0 | 0.0 | 0.00 | 0.00 | 0.00 | 71 | 999.3 | |
| 20260506011510 | 58 | 0.0 | 0.0 | 0.00 | 0.00 | 0.00 | 71 | 999.2 | |
| 20260506010010 | 58 | 0.0 | 0.0 | 0.00 | 0.00 | 0.00 | 70 | 999.2 | |
| 20260506004509 | 58 | 0.0 | 0.0 | 0.00 | 0.00 | 0.00 | 71 | 999.2 | |
| 20260506003014 | 59 | 0.0 | 0.0 | 0.00 | 0.00 | 0.00 | 70 | 999.1 |